sensor_id;sensor_type;location;lat;lon;timestamp;pressure;altitude;pressure_sealevel;temperature;humidity
15670;BME280;18524;45.190;5.732;2023-02-17T00:04:42;100593.03;;;8.73;63.89
15670;BME280;18524;45.190;5.732;2023-02-17T00:09:32;100589.66;;;8.71;62.54
15670;BME280;18524;45.190;5.732;2023-02-17T00:14:23;100601.97;;;8.69;62.30
15670;BME280;18524;45.190;5.732;2023-02-17T00:19:13;100598.44;;;8.70;62.55
15670;BME280;18524;45.190;5.732;2023-02-17T00:24:12;100596.44;;;8.75;62.23
15670;BME280;18524;45.190;5.732;2023-02-17T00:29:03;100597.59;;;8.69;62.09
15670;BME280;18524;45.190;5.732;2023-02-17T00:33:54;100584.44;;;8.71;61.16
15670;BME280;18524;45.190;5.732;2023-02-17T00:38:45;100590.13;;;8.62;61.77
15670;BME280;18524;45.190;5.732;2023-02-17T00:43:38;100595.78;;;8.53;61.47
15670;BME280;18524;45.190;5.732;2023-02-17T00:48:29;100599.63;;;8.45;59.97
15670;BME280;18524;45.190;5.732;2023-02-17T00:53:20;100595.88;;;8.32;60.03
15670;BME280;18524;45.190;5.732;2023-02-17T00:58:10;100593.09;;;8.18;61.77
15670;BME280;18524;45.190;5.732;2023-02-17T01:03:01;100588.06;;;7.95;66.26
15670;BME280;18524;45.190;5.732;2023-02-17T01:07:51;100595.97;;;7.74;68.06
15670;BME280;18524;45.190;5.732;2023-02-17T01:12:42;100596.47;;;7.64;69.52
15670;BME280;18524;45.190;5.732;2023-02-17T01:17:32;100589.06;;;7.34;71.53
15670;BME280;18524;45.190;5.732;2023-02-17T01:22:23;100597.75;;;7.35;72.54
15670;BME280;18524;45.190;5.732;2023-02-17T01:27:13;100602.13;;;7.34;72.47
15670;BME280;18524;45.190;5.732;2023-02-17T01:32:04;100601.00;;;7.40;73.05
15670;BME280;18524;45.190;5.732;2023-02-17T01:36:54;100600.56;;;7.30;72.57
15670;BME280;18524;45.190;5.732;2023-02-17T01:41:45;100599.84;;;7.27;72.78
15670;BME280;18524;45.190;5.732;2023-02-17T01:46:37;100592.91;;;7.07;73.61
15670;BME280;18524;45.190;5.732;2023-02-17T01:51:30;100592.44;;;7.17;73.43
15670;BME280;18524;45.190;5.732;2023-02-17T01:56:23;100596.84;;;6.95;73.77
15670;BME280;18524;45.190;5.732;2023-02-17T02:01:15;100593.34;;;6.76;75.07
15670;BME280;18524;45.190;5.732;2023-02-17T02:06:11;100587.00;;;6.81;75.27
15670;BME280;18524;45.190;5.732;2023-02-17T02:11:03;100585.13;;;6.85;75.00
15670;BME280;18524;45.190;5.732;2023-02-17T02:16:05;100586.34;;;6.97;74.26
15670;BME280;18524;45.190;5.732;2023-02-17T02:21:24;100593.13;;;7.01;74.67
15670;BME280;18524;45.190;5.732;2023-02-17T02:32:39;100583.41;;;7.04;74.31
15670;BME280;18524;45.190;5.732;2023-02-17T02:37:43;100585.09;;;7.05;73.74
15670;BME280;18524;45.190;5.732;2023-02-17T02:42:36;100580.38;;;7.15;73.86
15670;BME280;18524;45.190;5.732;2023-02-17T02:47:53;100573.97;;;7.22;73.01
15670;BME280;18524;45.190;5.732;2023-02-17T02:52:57;100572.41;;;7.18;72.72
15670;BME280;18524;45.190;5.732;2023-02-17T02:58:12;100566.13;;;7.22;72.80
15670;BME280;18524;45.190;5.732;2023-02-17T03:03:07;100576.78;;;7.17;73.28
15670;BME280;18524;45.190;5.732;2023-02-17T03:08:07;100566.84;;;7.26;71.86
15670;BME280;18524;45.190;5.732;2023-02-17T03:13:03;100570.22;;;7.28;68.32
15670;BME280;18524;45.190;5.732;2023-02-17T03:17:57;100572.63;;;7.32;67.22
15670;BME280;18524;45.190;5.732;2023-02-17T03:22:48;100580.53;;;7.31;66.22
15670;BME280;18524;45.190;5.732;2023-02-17T03:27:38;100574.22;;;7.16;66.02
15670;BME280;18524;45.190;5.732;2023-02-17T03:32:29;100585.59;;;7.15;66.11
15670;BME280;18524;45.190;5.732;2023-02-17T03:37:19;100579.78;;;7.08;66.17
15670;BME280;18524;45.190;5.732;2023-02-17T03:42:10;100581.25;;;7.34;67.90
15670;BME280;18524;45.190;5.732;2023-02-17T03:47:00;100588.63;;;7.25;69.36
15670;BME280;18524;45.190;5.732;2023-02-17T03:51:50;100584.31;;;7.03;72.09
15670;BME280;18524;45.190;5.732;2023-02-17T03:56:41;100588.78;;;6.81;73.35
15670;BME280;18524;45.190;5.732;2023-02-17T04:01:31;100590.41;;;6.83;73.21
15670;BME280;18524;45.190;5.732;2023-02-17T04:06:22;100602.63;;;6.61;74.03
15670;BME280;18524;45.190;5.732;2023-02-17T04:11:12;100604.41;;;6.39;75.73
15670;BME280;18524;45.190;5.732;2023-02-17T04:16:05;100601.66;;;5.98;77.87
15670;BME280;18524;45.190;5.732;2023-02-17T04:20:56;100606.78;;;5.76;79.15
15670;BME280;18524;45.190;5.732;2023-02-17T04:25:47;100607.25;;;5.64;80.94
15670;BME280;18524;45.190;5.732;2023-02-17T04:30:38;100607.91;;;5.92;80.00
15670;BME280;18524;45.190;5.732;2023-02-17T04:35:28;100620.16;;;5.90;79.68
15670;BME280;18524;45.190;5.732;2023-02-17T04:40:19;100619.53;;;6.07;78.81
15670;BME280;18524;45.190;5.732;2023-02-17T04:45:10;100612.06;;;5.98;79.30
15670;BME280;18524;45.190;5.732;2023-02-17T04:50:00;100616.06;;;6.07;78.33
15670;BME280;18524;45.190;5.732;2023-02-17T04:54:51;100627.03;;;5.68;80.10
15670;BME280;18524;45.190;5.732;2023-02-17T04:59:41;100632.59;;;5.59;81.20
15670;BME280;18524;45.190;5.732;2023-02-17T05:04:31;100629.09;;;5.60;80.54
15670;BME280;18524;45.190;5.732;2023-02-17T05:09:22;100630.41;;;5.47;81.21
15670;BME280;18524;45.190;5.732;2023-02-17T05:14:13;100635.78;;;5.42;81.65
15670;BME280;18524;45.190;5.732;2023-02-17T05:19:04;100630.78;;;5.61;80.80
15670;BME280;18524;45.190;5.732;2023-02-17T05:23:55;100620.94;;;5.69;81.62
15670;BME280;18524;45.190;5.732;2023-02-17T05:28:45;100628.41;;;5.78;80.57
15670;BME280;18524;45.190;5.732;2023-02-17T05:33:35;100628.75;;;5.69;81.28
15670;BME280;18524;45.190;5.732;2023-02-17T05:38:26;100632.47;;;5.85;80.34
15670;BME280;18524;45.190;5.732;2023-02-17T05:43:16;100639.03;;;5.72;80.69
15670;BME280;18524;45.190;5.732;2023-02-17T05:48:06;100634.69;;;5.73;79.92
15670;BME280;18524;45.190;5.732;2023-02-17T05:52:57;100640.38;;;5.82;80.16
15670;BME280;18524;45.190;5.732;2023-02-17T05:57:47;100650.53;;;5.67;80.62
15670;BME280;18524;45.190;5.732;2023-02-17T06:02:38;100651.72;;;5.58;81.31
15670;BME280;18524;45.190;5.732;2023-02-17T06:07:28;100652.06;;;5.72;79.95
15670;BME280;18524;45.190;5.732;2023-02-17T06:12:18;100653.06;;;5.68;80.40
15670;BME280;18524;45.190;5.732;2023-02-17T06:17:09;100654.16;;;5.62;80.69
15670;BME280;18524;45.190;5.732;2023-02-17T06:21:59;100663.59;;;5.65;80.27
15670;BME280;18524;45.190;5.732;2023-02-17T06:26:50;100662.53;;;5.46;81.01
15670;BME280;18524;45.190;5.732;2023-02-17T06:31:40;100671.34;;;5.42;81.83
15670;BME280;18524;45.190;5.732;2023-02-17T06:36:30;100679.22;;;5.40;81.46
15670;BME280;18524;45.190;5.732;2023-02-17T06:41:21;100667.59;;;5.25;81.48
15670;BME280;18524;45.190;5.732;2023-02-17T06:46:11;100668.59;;;5.46;81.12
15670;BME280;18524;45.190;5.732;2023-02-17T06:51:02;100676.13;;;5.29;81.66
15670;BME280;18524;45.190;5.732;2023-02-17T06:55:52;100673.06;;;5.43;81.97
15670;BME280;18524;45.190;5.732;2023-02-17T07:00:42;100679.44;;;5.59;80.95
15670;BME280;18524;45.190;5.732;2023-02-17T07:05:35;100681.66;;;5.70;80.83
15670;BME280;18524;45.190;5.732;2023-02-17T07:10:26;100682.59;;;5.67;79.61
15670;BME280;18524;45.190;5.732;2023-02-17T07:15:16;100697.53;;;5.62;81.05
15670;BME280;18524;45.190;5.732;2023-02-17T07:20:07;100695.19;;;5.54;80.57
15670;BME280;18524;45.190;5.732;2023-02-17T07:24:58;100697.38;;;5.42;81.33
15670;BME280;18524;45.190;5.732;2023-02-17T07:29:48;100704.06;;;5.49;80.69
15670;BME280;18524;45.190;5.732;2023-02-17T07:34:39;100702.25;;;5.76;80.32
15670;BME280;18524;45.190;5.732;2023-02-17T07:39:29;100702.69;;;6.12;78.50
15670;BME280;18524;45.190;5.732;2023-02-17T07:44:20;100695.94;;;6.30;76.83
15670;BME280;18524;45.190;5.732;2023-02-17T07:49:10;100694.34;;;6.71;75.18
15670;BME280;18524;45.190;5.732;2023-02-17T07:54:01;100696.50;;;7.03;74.33
15670;BME280;18524;45.190;5.732;2023-02-17T07:58:51;100711.72;;;7.14;72.37
15670;BME280;18524;45.190;5.732;2023-02-17T08:03:42;100715.75;;;6.79;72.73
15670;BME280;18524;45.190;5.732;2023-02-17T08:08:33;100720.47;;;6.91;72.09
15670;BME280;18524;45.190;5.732;2023-02-17T08:13:43;100718.22;;;6.60;75.03
15670;BME280;18524;45.190;5.732;2023-02-17T08:18:34;100718.16;;;7.05;73.04
15670;BME280;18524;45.190;5.732;2023-02-17T08:23:24;100709.06;;;7.15;72.39
15670;BME280;18524;45.190;5.732;2023-02-17T08:28:14;100706.84;;;7.67;69.61
15670;BME280;18524;45.190;5.732;2023-02-17T08:33:06;100710.13;;;7.52;69.89
15670;BME280;18524;45.190;5.732;2023-02-17T08:37:57;100708.69;;;8.23;68.25
15670;BME280;18524;45.190;5.732;2023-02-17T08:42:47;100702.91;;;8.73;65.09
15670;BME280;18524;45.190;5.732;2023-02-17T08:47:37;100701.56;;;9.00;62.88
15670;BME280;18524;45.190;5.732;2023-02-17T08:52:28;100701.72;;;8.97;63.49
15670;BME280;18524;45.190;5.732;2023-02-17T08:57:18;100714.13;;;8.94;63.14
15670;BME280;18524;45.190;5.732;2023-02-17T09:02:10;100709.88;;;9.08;62.92
15670;BME280;18524;45.190;5.732;2023-02-17T09:07:01;100708.75;;;9.49;61.69
15670;BME280;18524;45.190;5.732;2023-02-17T09:11:52;100701.19;;;9.93;60.58
15670;BME280;18524;45.190;5.732;2023-02-17T09:16:44;100710.75;;;9.94;60.02
15670;BME280;18524;45.190;5.732;2023-02-17T09:21:34;100708.91;;;9.96;60.96
15670;BME280;18524;45.190;5.732;2023-02-17T09:26:25;100704.72;;;10.09;60.41
15670;BME280;18524;45.190;5.732;2023-02-17T09:31:20;100706.78;;;10.36;59.67
15670;BME280;18524;45.190;5.732;2023-02-17T09:36:13;100700.63;;;10.68;58.64
15670;BME280;18524;45.190;5.732;2023-02-17T09:41:26;100696.16;;;11.16;56.61
15670;BME280;18524;45.190;5.732;2023-02-17T09:46:23;100692.06;;;11.26;54.38
15670;BME280;18524;45.190;5.732;2023-02-17T09:56:19;100691.53;;;11.94;51.71
15670;BME280;18524;45.190;5.732;2023-02-17T10:01:25;100689.34;;;12.00;50.98
15670;BME280;18524;45.190;5.732;2023-02-17T10:06:22;100686.03;;;12.39;50.45
15670;BME280;18524;45.190;5.732;2023-02-17T10:16:22;100685.66;;;12.72;48.26
15670;BME280;18524;45.190;5.732;2023-02-17T10:21:17;100690.03;;;12.99;47.17
15670;BME280;18524;45.190;5.732;2023-02-17T10:31:04;100668.78;;;13.67;43.90
15670;BME280;18524;45.190;5.732;2023-02-17T10:40:59;100667.09;;;14.53;42.47
15670;BME280;18524;45.190;5.732;2023-02-17T10:45:51;100658.06;;;14.68;41.44
15670;BME280;18524;45.190;5.732;2023-02-17T10:50:43;100657.31;;;14.90;41.46
15670;BME280;18524;45.190;5.732;2023-02-17T10:55:44;100657.72;;;15.43;40.41
15670;BME280;18524;45.190;5.732;2023-02-17T11:00:40;100649.38;;;15.72;38.55
15670;BME280;18524;45.190;5.732;2023-02-17T11:05:33;100638.53;;;15.86;38.45
15670;BME280;18524;45.190;5.732;2023-02-17T11:10:36;100629.03;;;15.94;37.65
15670;BME280;18524;45.190;5.732;2023-02-17T11:15:33;100622.63;;;16.19;37.07
15670;BME280;18524;45.190;5.732;2023-02-17T11:20:33;100615.16;;;16.24;35.48
15670;BME280;18524;45.190;5.732;2023-02-17T11:25:28;100604.91;;;16.31;33.90
15670;BME280;18524;45.190;5.732;2023-02-17T11:30:19;100598.50;;;16.45;33.85
15670;BME280;18524;45.190;5.732;2023-02-17T11:40:23;100581.81;;;16.97;32.52
15670;BME280;18524;45.190;5.732;2023-02-17T11:45:17;100567.91;;;16.84;32.48
15670;BME280;18524;45.190;5.732;2023-02-17T11:50:34;100555.88;;;17.22;32.34
15670;BME280;18524;45.190;5.732;2023-02-17T12:00:35;100547.22;;;17.80;30.50
15670;BME280;18524;45.190;5.732;2023-02-17T12:05:49;100535.47;;;17.73;31.29
15670;BME280;18524;45.190;5.732;2023-02-17T12:11:04;100533.97;;;17.50;31.78
15670;BME280;18524;45.190;5.732;2023-02-17T12:21:17;100522.72;;;17.67;32.54
15670;BME280;18524;45.190;5.732;2023-02-17T12:26:44;100508.72;;;17.65;32.92
15670;BME280;18524;45.190;5.732;2023-02-17T12:36:45;100485.25;;;17.61;33.56
15670;BME280;18524;45.190;5.732;2023-02-17T12:41:44;100472.41;;;17.56;33.36
15670;BME280;18524;45.190;5.732;2023-02-17T12:46:40;100467.16;;;17.75;33.13
15670;BME280;18524;45.190;5.732;2023-02-17T12:56:52;100448.72;;;17.84;33.13
15670;BME280;18524;45.190;5.732;2023-02-17T13:01:58;100437.28;;;17.83;32.34
15670;BME280;18524;45.190;5.732;2023-02-17T13:12:37;100415.78;;;18.05;32.91
15670;BME280;18524;45.190;5.732;2023-02-17T13:22:22;100402.03;;;17.52;33.09
15670;BME280;18524;45.190;5.732;2023-02-17T13:27:19;100390.81;;;17.39;33.44
15670;BME280;18524;45.190;5.732;2023-02-17T13:32:11;100391.50;;;17.22;33.75
15670;BME280;18524;45.190;5.732;2023-02-17T13:37:36;100381.56;;;17.14;33.85
15670;BME280;18524;45.190;5.732;2023-02-17T13:42:40;100374.53;;;17.03;33.84
15670;BME280;18524;45.190;5.732;2023-02-17T13:47:35;100375.16;;;17.16;32.92
15670;BME280;18524;45.190;5.732;2023-02-17T13:52:27;100370.63;;;17.07;32.44
15670;BME280;18524;45.190;5.732;2023-02-17T14:02:18;100368.88;;;17.17;32.40
15670;BME280;18524;45.190;5.732;2023-02-17T14:07:09;100370.91;;;17.04;32.24
15670;BME280;18524;45.190;5.732;2023-02-17T14:12:02;100372.44;;;17.07;32.86
15670;BME280;18524;45.190;5.732;2023-02-17T14:17:27;100372.91;;;17.12;33.14
15670;BME280;18524;45.190;5.732;2023-02-17T14:22:27;100373.56;;;17.04;33.20
15670;BME280;18524;45.190;5.732;2023-02-17T14:27:18;100367.97;;;17.07;33.08
15670;BME280;18524;45.190;5.732;2023-02-17T14:32:29;100374.25;;;17.06;33.49
15670;BME280;18524;45.190;5.732;2023-02-17T14:37:23;100361.28;;;17.03;33.82
15670;BME280;18524;45.190;5.732;2023-02-17T14:42:14;100361.72;;;17.08;33.70
15670;BME280;18524;45.190;5.732;2023-02-17T14:47:05;100359.25;;;17.16;33.61
15670;BME280;18524;45.190;5.732;2023-02-17T14:51:55;100360.72;;;17.09;33.83
15670;BME280;18524;45.190;5.732;2023-02-17T14:56:58;100353.81;;;17.18;33.37
15670;BME280;18524;45.190;5.732;2023-02-17T15:01:51;100360.78;;;17.19;33.49
15670;BME280;18524;45.190;5.732;2023-02-17T15:06:44;100363.44;;;17.19;33.35
15670;BME280;18524;45.190;5.732;2023-02-17T15:11:37;100360.06;;;17.17;33.37
15670;BME280;18524;45.190;5.732;2023-02-17T15:16:28;100360.88;;;17.08;33.65
15670;BME280;18524;45.190;5.732;2023-02-17T15:21:49;100365.09;;;17.10;33.79
15670;BME280;18524;45.190;5.732;2023-02-17T15:26:39;100361.47;;;17.11;34.08
15670;BME280;18524;45.190;5.732;2023-02-17T15:31:31;100354.06;;;17.15;33.95
15670;BME280;18524;45.190;5.732;2023-02-17T15:36:24;100359.16;;;16.97;34.75
15670;BME280;18524;45.190;5.732;2023-02-17T15:41:23;100356.25;;;17.00;34.69
15670;BME280;18524;45.190;5.732;2023-02-17T15:46:16;100360.84;;;16.98;34.68
15670;BME280;18524;45.190;5.732;2023-02-17T15:51:11;100357.19;;;16.90;35.00
15670;BME280;18524;45.190;5.732;2023-02-17T15:56:17;100361.97;;;16.96;34.83
15670;BME280;18524;45.190;5.732;2023-02-17T16:01:16;100369.94;;;17.05;34.93
15670;BME280;18524;45.190;5.732;2023-02-17T16:06:08;100379.50;;;16.87;35.07
15670;BME280;18524;45.190;5.732;2023-02-17T16:11:00;100380.78;;;16.93;35.21
15670;BME280;18524;45.190;5.732;2023-02-17T16:15:57;100381.41;;;16.75;35.80
15670;BME280;18524;45.190;5.732;2023-02-17T16:20:49;100381.28;;;16.77;35.59
15670;BME280;18524;45.190;5.732;2023-02-17T16:25:42;100379.41;;;16.68;35.91
15670;BME280;18524;45.190;5.732;2023-02-17T16:30:34;100379.41;;;16.68;36.18
15670;BME280;18524;45.190;5.732;2023-02-17T16:35:29;100381.09;;;16.48;37.03
15670;BME280;18524;45.190;5.732;2023-02-17T16:40:24;100379.81;;;16.42;36.66
15670;BME280;18524;45.190;5.732;2023-02-17T16:45:20;100377.75;;;16.25;37.99
15670;BME280;18524;45.190;5.732;2023-02-17T16:50:18;100382.41;;;16.12;38.77
15670;BME280;18524;45.190;5.732;2023-02-17T16:55:15;100388.34;;;16.04;40.63
15670;BME280;18524;45.190;5.732;2023-02-17T17:00:07;100393.78;;;15.91;40.61
15670;BME280;18524;45.190;5.732;2023-02-17T17:04:58;100393.31;;;15.86;42.49
15670;BME280;18524;45.190;5.732;2023-02-17T17:09:48;100397.44;;;15.79;44.72
15670;BME280;18524;45.190;5.732;2023-02-17T17:14:39;100407.31;;;15.77;45.06
15670;BME280;18524;45.190;5.732;2023-02-17T17:19:29;100408.22;;;15.67;46.15
15670;BME280;18524;45.190;5.732;2023-02-17T17:24:20;100404.47;;;15.69;47.16
15670;BME280;18524;45.190;5.732;2023-02-17T17:29:13;100420.09;;;15.72;47.53
15670;BME280;18524;45.190;5.732;2023-02-17T17:34:04;100415.56;;;15.63;48.30
15670;BME280;18524;45.190;5.732;2023-02-17T17:38:55;100419.72;;;15.54;49.14
15670;BME280;18524;45.190;5.732;2023-02-17T17:43:46;100433.09;;;15.64;49.32
15670;BME280;18524;45.190;5.732;2023-02-17T17:48:37;100434.28;;;15.60;49.72
15670;BME280;18524;45.190;5.732;2023-02-17T17:53:27;100432.13;;;15.65;49.92
15670;BME280;18524;45.190;5.732;2023-02-17T17:58:18;100445.81;;;15.70;50.50
15670;BME280;18524;45.190;5.732;2023-02-17T18:03:08;100461.91;;;15.56;51.48
15670;BME280;18524;45.190;5.732;2023-02-17T18:07:59;100460.94;;;15.57;51.43
15670;BME280;18524;45.190;5.732;2023-02-17T18:12:50;100463.88;;;15.43;52.00
15670;BME280;18524;45.190;5.732;2023-02-17T18:17:41;100465.53;;;15.44;52.62
15670;BME280;18524;45.190;5.732;2023-02-17T18:22:31;100469.75;;;15.46;52.71
15670;BME280;18524;45.190;5.732;2023-02-17T18:27:22;100468.44;;;15.41;52.94
15670;BME280;18524;45.190;5.732;2023-02-17T18:32:12;100469.41;;;15.40;52.52
15670;BME280;18524;45.190;5.732;2023-02-17T18:37:02;100462.06;;;15.32;53.09
15670;BME280;18524;45.190;5.732;2023-02-17T18:41:53;100470.63;;;15.24;51.62
15670;BME280;18524;45.190;5.732;2023-02-17T18:46:43;100465.56;;;15.10;51.41
15670;BME280;18524;45.190;5.732;2023-02-17T18:51:34;100462.31;;;15.07;53.18
15670;BME280;18524;45.190;5.732;2023-02-17T18:56:28;100475.53;;;15.07;53.31
15670;BME280;18524;45.190;5.732;2023-02-17T19:01:22;100471.31;;;15.04;54.94
15670;BME280;18524;45.190;5.732;2023-02-17T19:06:15;100484.91;;;14.99;55.82
15670;BME280;18524;45.190;5.732;2023-02-17T19:11:06;100474.44;;;14.98;57.35
15670;BME280;18524;45.190;5.732;2023-02-17T19:16:05;100479.25;;;14.93;58.57
15670;BME280;18524;45.190;5.732;2023-02-17T19:20:55;100482.97;;;14.90;59.45
15670;BME280;18524;45.190;5.732;2023-02-17T19:25:46;100493.03;;;14.85;56.17
15670;BME280;18524;45.190;5.732;2023-02-17T19:30:36;100508.22;;;14.59;52.78
15670;BME280;18524;45.190;5.732;2023-02-17T19:35:26;100504.84;;;14.33;51.86
15670;BME280;18524;45.190;5.732;2023-02-17T19:40:18;100505.53;;;14.24;52.30
15670;BME280;18524;45.190;5.732;2023-02-17T19:45:09;100512.03;;;14.07;52.00
15670;BME280;18524;45.190;5.732;2023-02-17T19:49:59;100511.72;;;13.88;52.25
15670;BME280;18524;45.190;5.732;2023-02-17T19:54:49;100513.84;;;13.83;52.20
15670;BME280;18524;45.190;5.732;2023-02-17T19:59:40;100512.06;;;13.71;52.73
15670;BME280;18524;45.190;5.732;2023-02-17T20:04:30;100508.91;;;13.66;52.37
15670;BME280;18524;45.190;5.732;2023-02-17T20:09:21;100514.00;;;13.56;52.21
15670;BME280;18524;45.190;5.732;2023-02-17T20:14:12;100516.34;;;13.48;52.53
15670;BME280;18524;45.190;5.732;2023-02-17T20:19:03;100517.84;;;13.39;53.08
15670;BME280;18524;45.190;5.732;2023-02-17T20:23:54;100532.59;;;13.29;53.52
15670;BME280;18524;45.190;5.732;2023-02-17T20:28:45;100534.28;;;13.30;53.77
15670;BME280;18524;45.190;5.732;2023-02-17T20:33:35;100538.50;;;13.20;54.02
15670;BME280;18524;45.190;5.732;2023-02-17T20:38:26;100540.72;;;13.26;53.74
15670;BME280;18524;45.190;5.732;2023-02-17T20:43:16;100546.06;;;13.12;54.19
15670;BME280;18524;45.190;5.732;2023-02-17T20:48:08;100555.88;;;13.10;54.22
15670;BME280;18524;45.190;5.732;2023-02-17T20:52:59;100556.47;;;12.88;55.14
15670;BME280;18524;45.190;5.732;2023-02-17T20:57:49;100559.41;;;12.83;55.69
15670;BME280;18524;45.190;5.732;2023-02-17T21:02:39;100570.03;;;12.82;55.73
15670;BME280;18524;45.190;5.732;2023-02-17T21:07:30;100564.66;;;12.71;56.61
15670;BME280;18524;45.190;5.732;2023-02-17T21:12:20;100564.97;;;12.66;56.83
15670;BME280;18524;45.190;5.732;2023-02-17T21:17:10;100573.03;;;12.63;56.86
15670;BME280;18524;45.190;5.732;2023-02-17T21:22:01;100578.41;;;12.62;56.84
15670;BME280;18524;45.190;5.732;2023-02-17T21:26:51;100579.31;;;12.48;57.16
15670;BME280;18524;45.190;5.732;2023-02-17T21:31:42;100585.78;;;12.30;57.80
15670;BME280;18524;45.190;5.732;2023-02-17T21:36:32;100585.53;;;12.20;58.28
15670;BME280;18524;45.190;5.732;2023-02-17T21:41:23;100581.31;;;12.17;58.27
15670;BME280;18524;45.190;5.732;2023-02-17T21:46:15;100581.09;;;12.20;58.63
15670;BME280;18524;45.190;5.732;2023-02-17T21:51:07;100579.66;;;11.88;59.40
15670;BME280;18524;45.190;5.732;2023-02-17T21:55:59;100586.06;;;11.84;59.94
15670;BME280;18524;45.190;5.732;2023-02-17T22:00:49;100585.41;;;11.80;59.66
15670;BME280;18524;45.190;5.732;2023-02-17T22:05:39;100578.75;;;11.61;60.71
15670;BME280;18524;45.190;5.732;2023-02-17T22:10:30;100581.00;;;11.52;61.37
15670;BME280;18524;45.190;5.732;2023-02-17T22:15:20;100591.03;;;11.46;61.96
15670;BME280;18524;45.190;5.732;2023-02-17T22:20:11;100585.41;;;11.23;62.23
15670;BME280;18524;45.190;5.732;2023-02-17T22:25:01;100595.16;;;11.21;62.89
15670;BME280;18524;45.190;5.732;2023-02-17T22:29:53;100599.75;;;11.32;62.20
15670;BME280;18524;45.190;5.732;2023-02-17T22:34:44;100604.25;;;11.16;63.01
15670;BME280;18524;45.190;5.732;2023-02-17T22:39:34;100600.78;;;11.15;63.29
15670;BME280;18524;45.190;5.732;2023-02-17T22:44:25;100597.28;;;11.15;63.31
15670;BME280;18524;45.190;5.732;2023-02-17T22:49:15;100612.69;;;11.21;63.68
15670;BME280;18524;45.190;5.732;2023-02-17T22:54:07;100611.00;;;11.20;63.34
15670;BME280;18524;45.190;5.732;2023-02-17T22:58:58;100623.00;;;11.24;63.51
15670;BME280;18524;45.190;5.732;2023-02-17T23:03:51;100624.97;;;11.20;63.67
15670;BME280;18524;45.190;5.732;2023-02-17T23:08:43;100627.09;;;11.14;63.83
15670;BME280;18524;45.190;5.732;2023-02-17T23:13:34;100622.34;;;11.20;64.11
15670;BME280;18524;45.190;5.732;2023-02-17T23:18:25;100632.75;;;11.22;63.99
15670;BME280;18524;45.190;5.732;2023-02-17T23:23:18;100626.25;;;11.13;64.60
15670;BME280;18524;45.190;5.732;2023-02-17T23:28:09;100620.34;;;11.10;64.92
15670;BME280;18524;45.190;5.732;2023-02-17T23:33:00;100633.13;;;11.16;64.77
15670;BME280;18524;45.190;5.732;2023-02-17T23:37:50;100632.09;;;10.88;65.22
15670;BME280;18524;45.190;5.732;2023-02-17T23:42:41;100628.72;;;10.86;65.86
15670;BME280;18524;45.190;5.732;2023-02-17T23:47:31;100632.47;;;10.82;65.72
15670;BME280;18524;45.190;5.732;2023-02-17T23:52:21;100633.81;;;10.74;66.67
15670;BME280;18524;45.190;5.732;2023-02-17T23:57:12;100631.09;;;10.75;66.40
